sensor_id;sensor_type;location;lat;lon;timestamp;temperature;humidity
18694;DHT22;9477;51.414;10.362;2024-01-15T00:00:27;3.90;99.90
18694;DHT22;9477;51.414;10.362;2024-01-15T00:02:30;3.90;99.90
18694;DHT22;9477;51.414;10.362;2024-01-15T00:04:36;3.80;99.90
18694;DHT22;9477;51.414;10.362;2024-01-15T00:06:40;4.00;99.90
18694;DHT22;9477;51.414;10.362;2024-01-15T00:08:42;4.00;99.90
18694;DHT22;9477;51.414;10.362;2024-01-15T00:10:44;4.00;99.90
18694;DHT22;9477;51.414;10.362;2024-01-15T00:12:47;4.10;99.90
18694;DHT22;9477;51.414;10.362;2024-01-15T00:14:50;4.10;99.90
18694;DHT22;9477;51.414;10.362;2024-01-15T00:16:54;4.20;99.90
18694;DHT22;9477;51.414;10.362;2024-01-15T00:18:56;4.20;99.90
18694;DHT22;9477;51.414;10.362;2024-01-15T00:20:59;4.20;99.90
18694;DHT22;9477;51.414;10.362;2024-01-15T00:23:04;4.00;99.90
18694;DHT22;9477;51.414;10.362;2024-01-15T00:25:07;4.20;99.90
18694;DHT22;9477;51.414;10.362;2024-01-15T00:27:09;4.20;99.90
18694;DHT22;9477;51.414;10.362;2024-01-15T00:29:12;4.20;99.90
18694;DHT22;9477;51.414;10.362;2024-01-15T00:31:16;4.20;99.90
18694;DHT22;9477;51.414;10.362;2024-01-15T00:33:19;4.20;99.90
18694;DHT22;9477;51.414;10.362;2024-01-15T00:35:22;4.20;99.90
18694;DHT22;9477;51.414;10.362;2024-01-15T00:37:24;4.30;99.90
18694;DHT22;9477;51.414;10.362;2024-01-15T00:39:28;4.20;99.90
18694;DHT22;9477;51.414;10.362;2024-01-15T00:41:31;4.10;99.90
18694;DHT22;9477;51.414;10.362;2024-01-15T00:43:34;4.20;99.90
18694;DHT22;9477;51.414;10.362;2024-01-15T00:45:37;4.10;99.90
18694;DHT22;9477;51.414;10.362;2024-01-15T00:47:40;4.20;99.90
18694;DHT22;9477;51.414;10.362;2024-01-15T00:49:43;4.20;99.90
18694;DHT22;9477;51.414;10.362;2024-01-15T00:51:47;4.20;99.90
18694;DHT22;9477;51.414;10.362;2024-01-15T00:53:49;4.20;99.90
18694;DHT22;9477;51.414;10.362;2024-01-15T00:55:53;4.30;99.90
18694;DHT22;9477;51.414;10.362;2024-01-15T00:57:56;4.20;99.90
18694;DHT22;9477;51.414;10.362;2024-01-15T00:59:58;4.20;99.90
18694;DHT22;9477;51.414;10.362;2024-01-15T01:02:06;4.30;99.90
18694;DHT22;9477;51.414;10.362;2024-01-15T01:04:09;4.30;99.90
18694;DHT22;9477;51.414;10.362;2024-01-15T01:06:12;4.20;99.90
18694;DHT22;9477;51.414;10.362;2024-01-15T01:08:14;4.30;99.90
18694;DHT22;9477;51.414;10.362;2024-01-15T01:10:17;4.40;99.90
18694;DHT22;9477;51.414;10.362;2024-01-15T01:12:21;4.40;99.90
18694;DHT22;9477;51.414;10.362;2024-01-15T01:14:24;4.50;99.90
18694;DHT22;9477;51.414;10.362;2024-01-15T01:16:27;4.50;99.90
18694;DHT22;9477;51.414;10.362;2024-01-15T01:18:30;4.50;99.90
18694;DHT22;9477;51.414;10.362;2024-01-15T01:20:32;4.60;99.90
18694;DHT22;9477;51.414;10.362;2024-01-15T01:22:35;4.60;99.90
18694;DHT22;9477;51.414;10.362;2024-01-15T01:24:37;4.60;99.90
18694;DHT22;9477;51.414;10.362;2024-01-15T01:26:40;4.60;99.90
18694;DHT22;9477;51.414;10.362;2024-01-15T01:28:45;4.50;99.90
18694;DHT22;9477;51.414;10.362;2024-01-15T01:30:47;4.40;99.90
18694;DHT22;9477;51.414;10.362;2024-01-15T01:32:50;4.40;99.90
18694;DHT22;9477;51.414;10.362;2024-01-15T01:34:52;4.40;99.90
18694;DHT22;9477;51.414;10.362;2024-01-15T01:36:55;4.30;99.90
18694;DHT22;9477;51.414;10.362;2024-01-15T01:38:57;4.40;99.90
18694;DHT22;9477;51.414;10.362;2024-01-15T01:41:00;4.50;99.90
18694;DHT22;9477;51.414;10.362;2024-01-15T01:43:03;4.50;99.90
18694;DHT22;9477;51.414;10.362;2024-01-15T01:45:08;4.40;99.90
18694;DHT22;9477;51.414;10.362;2024-01-15T01:47:12;4.40;99.90
18694;DHT22;9477;51.414;10.362;2024-01-15T01:49:14;4.40;99.90
18694;DHT22;9477;51.414;10.362;2024-01-15T01:51:17;4.30;99.90
18694;DHT22;9477;51.414;10.362;2024-01-15T01:53:20;4.10;99.90
18694;DHT22;9477;51.414;10.362;2024-01-15T01:55:24;4.00;99.90
18694;DHT22;9477;51.414;10.362;2024-01-15T01:57:28;4.10;99.90
18694;DHT22;9477;51.414;10.362;2024-01-15T01:59:33;4.20;99.90
18694;DHT22;9477;51.414;10.362;2024-01-15T02:01:37;4.00;99.90
18694;DHT22;9477;51.414;10.362;2024-01-15T02:03:41;4.10;99.90
18694;DHT22;9477;51.414;10.362;2024-01-15T02:05:44;4.20;99.90
18694;DHT22;9477;51.414;10.362;2024-01-15T02:07:47;4.30;99.90
18694;DHT22;9477;51.414;10.362;2024-01-15T02:09:49;4.30;99.90
18694;DHT22;9477;51.414;10.362;2024-01-15T02:11:52;4.30;99.90
18694;DHT22;9477;51.414;10.362;2024-01-15T02:13:55;4.40;99.90
18694;DHT22;9477;51.414;10.362;2024-01-15T02:15:58;4.40;99.90
18694;DHT22;9477;51.414;10.362;2024-01-15T02:18:04;4.40;99.90
18694;DHT22;9477;51.414;10.362;2024-01-15T02:20:08;4.40;99.90
18694;DHT22;9477;51.414;10.362;2024-01-15T02:22:11;4.50;99.90
18694;DHT22;9477;51.414;10.362;2024-01-15T02:24:15;4.40;99.90
18694;DHT22;9477;51.414;10.362;2024-01-15T02:26:18;4.40;99.90
18694;DHT22;9477;51.414;10.362;2024-01-15T02:28:21;4.40;99.90
18694;DHT22;9477;51.414;10.362;2024-01-15T02:30:25;4.30;99.90
18694;DHT22;9477;51.414;10.362;2024-01-15T02:32:29;4.10;99.90
18694;DHT22;9477;51.414;10.362;2024-01-15T02:34:32;4.00;99.90
18694;DHT22;9477;51.414;10.362;2024-01-15T02:36:35;4.00;99.90
18694;DHT22;9477;51.414;10.362;2024-01-15T02:38:38;4.10;99.90
18694;DHT22;9477;51.414;10.362;2024-01-15T02:40:43;4.20;99.90
18694;DHT22;9477;51.414;10.362;2024-01-15T02:42:46;4.10;99.90
18694;DHT22;9477;51.414;10.362;2024-01-15T02:44:48;4.10;99.90
18694;DHT22;9477;51.414;10.362;2024-01-15T02:46:51;4.10;99.90
18694;DHT22;9477;51.414;10.362;2024-01-15T02:48:54;4.20;99.90
18694;DHT22;9477;51.414;10.362;2024-01-15T02:50:57;4.20;99.90
18694;DHT22;9477;51.414;10.362;2024-01-15T02:52:59;4.10;99.90
18694;DHT22;9477;51.414;10.362;2024-01-15T02:55:02;4.10;99.90
18694;DHT22;9477;51.414;10.362;2024-01-15T02:57:06;4.10;99.90
18694;DHT22;9477;51.414;10.362;2024-01-15T02:59:09;4.00;99.90
18694;DHT22;9477;51.414;10.362;2024-01-15T03:01:12;4.00;99.90
18694;DHT22;9477;51.414;10.362;2024-01-15T03:03:15;4.00;99.90
18694;DHT22;9477;51.414;10.362;2024-01-15T03:05:18;4.00;99.90
18694;DHT22;9477;51.414;10.362;2024-01-15T03:07:20;4.00;99.90
18694;DHT22;9477;51.414;10.362;2024-01-15T03:09:22;4.00;99.90
18694;DHT22;9477;51.414;10.362;2024-01-15T03:11:25;4.10;99.90
18694;DHT22;9477;51.414;10.362;2024-01-15T03:13:30;4.00;99.90
18694;DHT22;9477;51.414;10.362;2024-01-15T03:15:32;4.10;99.90
18694;DHT22;9477;51.414;10.362;2024-01-15T03:17:35;4.20;99.90
18694;DHT22;9477;51.414;10.362;2024-01-15T03:19:38;4.20;99.90
18694;DHT22;9477;51.414;10.362;2024-01-15T03:21:41;4.10;99.90
18694;DHT22;9477;51.414;10.362;2024-01-15T03:23:44;4.10;99.90
18694;DHT22;9477;51.414;10.362;2024-01-15T03:25:47;4.10;99.90
18694;DHT22;9477;51.414;10.362;2024-01-15T03:27:50;4.10;99.90
18694;DHT22;9477;51.414;10.362;2024-01-15T03:29:54;4.20;99.90
18694;DHT22;9477;51.414;10.362;2024-01-15T03:31:57;4.10;99.90
18694;DHT22;9477;51.414;10.362;2024-01-15T03:33:59;3.90;99.90
18694;DHT22;9477;51.414;10.362;2024-01-15T03:36:02;3.90;99.90
18694;DHT22;9477;51.414;10.362;2024-01-15T03:38:05;3.90;99.90
18694;DHT22;9477;51.414;10.362;2024-01-15T03:40:08;4.10;99.90
18694;DHT22;9477;51.414;10.362;2024-01-15T03:42:12;4.10;99.90
18694;DHT22;9477;51.414;10.362;2024-01-15T03:44:14;4.10;99.90
18694;DHT22;9477;51.414;10.362;2024-01-15T03:46:18;4.10;99.90
18694;DHT22;9477;51.414;10.362;2024-01-15T03:48:20;4.10;99.90
18694;DHT22;9477;51.414;10.362;2024-01-15T03:50:24;4.10;99.90
18694;DHT22;9477;51.414;10.362;2024-01-15T03:52:27;4.10;99.90
18694;DHT22;9477;51.414;10.362;2024-01-15T03:54:29;4.00;99.90
18694;DHT22;9477;51.414;10.362;2024-01-15T03:56:32;4.20;99.90
18694;DHT22;9477;51.414;10.362;2024-01-15T03:58:34;4.20;99.90
18694;DHT22;9477;51.414;10.362;2024-01-15T04:00:37;4.20;99.90
18694;DHT22;9477;51.414;10.362;2024-01-15T04:02:41;4.20;99.90
18694;DHT22;9477;51.414;10.362;2024-01-15T04:04:44;4.30;99.90
18694;DHT22;9477;51.414;10.362;2024-01-15T04:06:47;4.30;99.90
18694;DHT22;9477;51.414;10.362;2024-01-15T04:08:50;4.40;99.90
18694;DHT22;9477;51.414;10.362;2024-01-15T04:10:52;4.40;99.90
18694;DHT22;9477;51.414;10.362;2024-01-15T04:12:54;4.40;99.90
18694;DHT22;9477;51.414;10.362;2024-01-15T04:14:57;4.40;99.90
18694;DHT22;9477;51.414;10.362;2024-01-15T04:17:00;4.40;99.90
18694;DHT22;9477;51.414;10.362;2024-01-15T04:19:04;4.50;99.90
18694;DHT22;9477;51.414;10.362;2024-01-15T04:21:08;4.40;99.90
18694;DHT22;9477;51.414;10.362;2024-01-15T04:23:10;4.50;99.90
18694;DHT22;9477;51.414;10.362;2024-01-15T04:25:13;4.50;99.90
18694;DHT22;9477;51.414;10.362;2024-01-15T04:27:16;4.60;99.90
18694;DHT22;9477;51.414;10.362;2024-01-15T04:29:19;4.50;99.90
18694;DHT22;9477;51.414;10.362;2024-01-15T04:31:24;4.50;99.90
18694;DHT22;9477;51.414;10.362;2024-01-15T04:33:29;4.50;99.90
18694;DHT22;9477;51.414;10.362;2024-01-15T04:35:33;4.40;99.90
18694;DHT22;9477;51.414;10.362;2024-01-15T04:37:36;4.40;99.90
18694;DHT22;9477;51.414;10.362;2024-01-15T04:39:40;4.40;99.90
18694;DHT22;9477;51.414;10.362;2024-01-15T04:41:43;4.50;99.90
18694;DHT22;9477;51.414;10.362;2024-01-15T04:43:46;4.50;99.90
18694;DHT22;9477;51.414;10.362;2024-01-15T04:45:49;4.60;99.90
18694;DHT22;9477;51.414;10.362;2024-01-15T04:47:52;4.40;99.90
18694;DHT22;9477;51.414;10.362;2024-01-15T04:49:55;4.50;99.90
18694;DHT22;9477;51.414;10.362;2024-01-15T04:51:59;4.50;99.90
18694;DHT22;9477;51.414;10.362;2024-01-15T04:54:02;4.50;99.90
18694;DHT22;9477;51.414;10.362;2024-01-15T04:56:05;4.40;99.90
18694;DHT22;9477;51.414;10.362;2024-01-15T04:58:08;4.40;99.90
18694;DHT22;9477;51.414;10.362;2024-01-15T05:00:11;4.40;99.90
18694;DHT22;9477;51.414;10.362;2024-01-15T05:02:15;4.50;99.90
18694;DHT22;9477;51.414;10.362;2024-01-15T05:04:18;4.40;99.90
18694;DHT22;9477;51.414;10.362;2024-01-15T05:06:21;4.40;99.90
18694;DHT22;9477;51.414;10.362;2024-01-15T05:08:25;4.50;99.90
18694;DHT22;9477;51.414;10.362;2024-01-15T05:10:28;4.40;99.90
18694;DHT22;9477;51.414;10.362;2024-01-15T05:12:30;4.40;99.90
18694;DHT22;9477;51.414;10.362;2024-01-15T05:14:32;4.40;99.90
18694;DHT22;9477;51.414;10.362;2024-01-15T05:16:38;4.40;99.90
18694;DHT22;9477;51.414;10.362;2024-01-15T05:18:40;4.50;99.90
18694;DHT22;9477;51.414;10.362;2024-01-15T05:20:43;4.50;99.90
18694;DHT22;9477;51.414;10.362;2024-01-15T05:22:45;4.50;99.90
18694;DHT22;9477;51.414;10.362;2024-01-15T05:24:49;4.50;99.90
18694;DHT22;9477;51.414;10.362;2024-01-15T05:26:52;4.60;99.90
18694;DHT22;9477;51.414;10.362;2024-01-15T05:28:55;4.60;99.90
18694;DHT22;9477;51.414;10.362;2024-01-15T05:30:58;4.50;99.90
18694;DHT22;9477;51.414;10.362;2024-01-15T05:33:00;4.60;99.90
18694;DHT22;9477;51.414;10.362;2024-01-15T05:35:05;4.60;99.90
18694;DHT22;9477;51.414;10.362;2024-01-15T05:37:07;4.70;99.90
18694;DHT22;9477;51.414;10.362;2024-01-15T05:39:09;4.70;99.90
18694;DHT22;9477;51.414;10.362;2024-01-15T05:41:13;4.60;99.90
18694;DHT22;9477;51.414;10.362;2024-01-15T05:43:15;4.60;99.90
18694;DHT22;9477;51.414;10.362;2024-01-15T05:45:18;4.60;99.90
18694;DHT22;9477;51.414;10.362;2024-01-15T05:47:21;4.60;99.90
18694;DHT22;9477;51.414;10.362;2024-01-15T05:49:24;4.50;99.90
18694;DHT22;9477;51.414;10.362;2024-01-15T05:51:27;4.50;99.90
18694;DHT22;9477;51.414;10.362;2024-01-15T05:53:30;4.30;99.90
18694;DHT22;9477;51.414;10.362;2024-01-15T05:55:32;4.50;99.90
18694;DHT22;9477;51.414;10.362;2024-01-15T05:57:37;4.60;99.90
18694;DHT22;9477;51.414;10.362;2024-01-15T05:59:39;4.50;99.90
18694;DHT22;9477;51.414;10.362;2024-01-15T06:01:41;4.30;99.90
18694;DHT22;9477;51.414;10.362;2024-01-15T06:03:44;4.20;99.90
18694;DHT22;9477;51.414;10.362;2024-01-15T06:05:47;4.30;99.90
18694;DHT22;9477;51.414;10.362;2024-01-15T06:07:50;4.40;99.90
18694;DHT22;9477;51.414;10.362;2024-01-15T06:09:53;4.40;99.90
18694;DHT22;9477;51.414;10.362;2024-01-15T06:11:58;4.40;99.90
18694;DHT22;9477;51.414;10.362;2024-01-15T06:14:02;4.40;99.90
18694;DHT22;9477;51.414;10.362;2024-01-15T06:16:13;4.50;99.90
18694;DHT22;9477;51.414;10.362;2024-01-15T06:18:16;4.50;99.90
18694;DHT22;9477;51.414;10.362;2024-01-15T06:20:19;4.40;99.90
18694;DHT22;9477;51.414;10.362;2024-01-15T06:22:22;4.40;99.90
18694;DHT22;9477;51.414;10.362;2024-01-15T06:24:24;4.30;99.90
18694;DHT22;9477;51.414;10.362;2024-01-15T06:26:27;4.30;99.90
18694;DHT22;9477;51.414;10.362;2024-01-15T06:28:29;4.10;99.90
18694;DHT22;9477;51.414;10.362;2024-01-15T06:30:33;4.00;99.90
18694;DHT22;9477;51.414;10.362;2024-01-15T06:32:36;4.20;99.90
18694;DHT22;9477;51.414;10.362;2024-01-15T06:34:40;4.20;99.90
18694;DHT22;9477;51.414;10.362;2024-01-15T06:36:42;4.30;99.90
18694;DHT22;9477;51.414;10.362;2024-01-15T06:38:45;4.30;99.90
18694;DHT22;9477;51.414;10.362;2024-01-15T06:40:47;4.30;99.90
18694;DHT22;9477;51.414;10.362;2024-01-15T06:42:54;4.30;99.90
18694;DHT22;9477;51.414;10.362;2024-01-15T06:44:57;4.40;99.90
18694;DHT22;9477;51.414;10.362;2024-01-15T06:47:01;4.50;99.90
18694;DHT22;9477;51.414;10.362;2024-01-15T06:49:04;4.50;99.90
18694;DHT22;9477;51.414;10.362;2024-01-15T06:51:07;4.50;99.90
18694;DHT22;9477;51.414;10.362;2024-01-15T06:53:09;4.50;99.90
18694;DHT22;9477;51.414;10.362;2024-01-15T06:55:12;4.50;99.90
18694;DHT22;9477;51.414;10.362;2024-01-15T06:57:15;4.40;99.90
18694;DHT22;9477;51.414;10.362;2024-01-15T06:59:18;4.40;99.90
18694;DHT22;9477;51.414;10.362;2024-01-15T07:01:21;4.50;99.90
18694;DHT22;9477;51.414;10.362;2024-01-15T07:03:26;4.50;99.90
18694;DHT22;9477;51.414;10.362;2024-01-15T07:05:28;4.50;99.90
18694;DHT22;9477;51.414;10.362;2024-01-15T07:07:32;4.50;99.90
18694;DHT22;9477;51.414;10.362;2024-01-15T07:09:35;4.50;99.90
18694;DHT22;9477;51.414;10.362;2024-01-15T07:11:38;4.40;99.90
18694;DHT22;9477;51.414;10.362;2024-01-15T07:13:40;4.40;99.90
18694;DHT22;9477;51.414;10.362;2024-01-15T07:15:43;4.30;99.90
18694;DHT22;9477;51.414;10.362;2024-01-15T07:17:46;4.40;99.90
18694;DHT22;9477;51.414;10.362;2024-01-15T07:19:50;4.40;99.90
18694;DHT22;9477;51.414;10.362;2024-01-15T07:21:53;4.50;99.90
18694;DHT22;9477;51.414;10.362;2024-01-15T07:23:58;4.40;99.90
18694;DHT22;9477;51.414;10.362;2024-01-15T07:26:00;4.40;99.90
18694;DHT22;9477;51.414;10.362;2024-01-15T07:28:04;4.40;99.90
18694;DHT22;9477;51.414;10.362;2024-01-15T07:30:07;4.40;99.90
18694;DHT22;9477;51.414;10.362;2024-01-15T07:32:10;4.40;99.90
18694;DHT22;9477;51.414;10.362;2024-01-15T07:34:13;4.20;99.90
18694;DHT22;9477;51.414;10.362;2024-01-15T07:36:17;4.30;99.90
18694;DHT22;9477;51.414;10.362;2024-01-15T07:38:20;4.10;99.90
18694;DHT22;9477;51.414;10.362;2024-01-15T07:40:25;4.20;99.90
18694;DHT22;9477;51.414;10.362;2024-01-15T07:42:28;4.20;99.90
18694;DHT22;9477;51.414;10.362;2024-01-15T07:44:31;4.20;99.90
18694;DHT22;9477;51.414;10.362;2024-01-15T07:46:33;4.30;99.90
18694;DHT22;9477;51.414;10.362;2024-01-15T07:48:36;4.10;99.90
18694;DHT22;9477;51.414;10.362;2024-01-15T07:50:39;4.20;99.90
18694;DHT22;9477;51.414;10.362;2024-01-15T07:52:43;4.30;99.90
18694;DHT22;9477;51.414;10.362;2024-01-15T07:54:46;4.30;99.90
18694;DHT22;9477;51.414;10.362;2024-01-15T07:56:53;4.40;99.90
18694;DHT22;9477;51.414;10.362;2024-01-15T07:58:56;4.40;99.90
18694;DHT22;9477;51.414;10.362;2024-01-15T08:00:59;4.40;99.90
18694;DHT22;9477;51.414;10.362;2024-01-15T08:03:02;4.40;99.90
18694;DHT22;9477;51.414;10.362;2024-01-15T08:05:05;4.40;99.90
18694;DHT22;9477;51.414;10.362;2024-01-15T08:07:08;4.40;99.90
18694;DHT22;9477;51.414;10.362;2024-01-15T08:09:12;4.40;99.90
18694;DHT22;9477;51.414;10.362;2024-01-15T08:11:16;4.30;99.90
18694;DHT22;9477;51.414;10.362;2024-01-15T08:13:18;4.30;99.90
18694;DHT22;9477;51.414;10.362;2024-01-15T08:15:21;4.30;99.90
18694;DHT22;9477;51.414;10.362;2024-01-15T08:17:26;4.30;99.90
18694;DHT22;9477;51.414;10.362;2024-01-15T08:19:30;4.20;99.90
18694;DHT22;9477;51.414;10.362;2024-01-15T08:21:33;4.20;99.90
18694;DHT22;9477;51.414;10.362;2024-01-15T08:23:36;4.20;99.90
18694;DHT22;9477;51.414;10.362;2024-01-15T08:25:40;4.20;99.90
18694;DHT22;9477;51.414;10.362;2024-01-15T08:27:43;4.30;99.90
18694;DHT22;9477;51.414;10.362;2024-01-15T08:29:46;4.40;99.90
18694;DHT22;9477;51.414;10.362;2024-01-15T08:31:49;4.50;99.90
18694;DHT22;9477;51.414;10.362;2024-01-15T08:33:52;4.60;99.90
18694;DHT22;9477;51.414;10.362;2024-01-15T08:35:55;4.60;99.90
18694;DHT22;9477;51.414;10.362;2024-01-15T08:37:58;4.60;99.90
18694;DHT22;9477;51.414;10.362;2024-01-15T08:40:00;4.60;99.90
18694;DHT22;9477;51.414;10.362;2024-01-15T08:42:06;4.60;99.90
18694;DHT22;9477;51.414;10.362;2024-01-15T08:44:09;4.60;99.90
18694;DHT22;9477;51.414;10.362;2024-01-15T08:46:12;4.50;99.90
18694;DHT22;9477;51.414;10.362;2024-01-15T08:48:14;4.50;99.90
18694;DHT22;9477;51.414;10.362;2024-01-15T08:50:16;4.50;99.90
18694;DHT22;9477;51.414;10.362;2024-01-15T08:52:19;4.50;99.90
18694;DHT22;9477;51.414;10.362;2024-01-15T08:54:22;4.60;99.90
18694;DHT22;9477;51.414;10.362;2024-01-15T08:56:25;4.70;99.90
18694;DHT22;9477;51.414;10.362;2024-01-15T08:58:30;4.70;99.90
18694;DHT22;9477;51.414;10.362;2024-01-15T09:00:32;4.70;99.90
18694;DHT22;9477;51.414;10.362;2024-01-15T09:02:35;4.70;99.90
18694;DHT22;9477;51.414;10.362;2024-01-15T09:04:39;4.70;99.90
18694;DHT22;9477;51.414;10.362;2024-01-15T09:06:44;4.70;99.90
18694;DHT22;9477;51.414;10.362;2024-01-15T09:08:47;4.80;99.90
18694;DHT22;9477;51.414;10.362;2024-01-15T09:10:50;4.70;99.90
18694;DHT22;9477;51.414;10.362;2024-01-15T09:12:53;4.60;99.90
18694;DHT22;9477;51.414;10.362;2024-01-15T09:14:57;4.70;99.90
18694;DHT22;9477;51.414;10.362;2024-01-15T09:17:00;4.60;99.90
18694;DHT22;9477;51.414;10.362;2024-01-15T09:19:02;4.70;99.90
18694;DHT22;9477;51.414;10.362;2024-01-15T09:21:06;4.80;99.90
18694;DHT22;9477;51.414;10.362;2024-01-15T09:23:07;4.90;99.90
18694;DHT22;9477;51.414;10.362;2024-01-15T09:25:10;4.90;99.90
18694;DHT22;9477;51.414;10.362;2024-01-15T09:27:13;5.00;99.90
18694;DHT22;9477;51.414;10.362;2024-01-15T09:29:16;5.00;99.90
18694;DHT22;9477;51.414;10.362;2024-01-15T09:31:20;5.10;99.90
18694;DHT22;9477;51.414;10.362;2024-01-15T09:33:23;5.00;99.90
18694;DHT22;9477;51.414;10.362;2024-01-15T09:35:26;5.00;99.90
18694;DHT22;9477;51.414;10.362;2024-01-15T09:37:29;4.90;99.90
18694;DHT22;9477;51.414;10.362;2024-01-15T09:39:47;4.90;99.90
18694;DHT22;9477;51.414;10.362;2024-01-15T09:41:51;5.00;99.90
18694;DHT22;9477;51.414;10.362;2024-01-15T09:43:54;5.10;99.90
18694;DHT22;9477;51.414;10.362;2024-01-15T09:45:57;5.20;99.90
18694;DHT22;9477;51.414;10.362;2024-01-15T09:48:02;5.30;99.90
18694;DHT22;9477;51.414;10.362;2024-01-15T09:50:05;5.30;99.90
18694;DHT22;9477;51.414;10.362;2024-01-15T09:52:09;5.40;99.90
18694;DHT22;9477;51.414;10.362;2024-01-15T09:54:13;5.50;99.90
18694;DHT22;9477;51.414;10.362;2024-01-15T09:56:18;5.60;99.90
18694;DHT22;9477;51.414;10.362;2024-01-15T09:58:21;5.60;99.90
18694;DHT22;9477;51.414;10.362;2024-01-15T10:00:25;5.60;99.90
18694;DHT22;9477;51.414;10.362;2024-01-15T10:02:28;5.60;99.90
18694;DHT22;9477;51.414;10.362;2024-01-15T10:04:33;5.60;99.90
18694;DHT22;9477;51.414;10.362;2024-01-15T10:06:36;5.70;99.90
18694;DHT22;9477;51.414;10.362;2024-01-15T10:08:41;5.60;99.90
18694;DHT22;9477;51.414;10.362;2024-01-15T10:10:44;5.40;99.90
18694;DHT22;9477;51.414;10.362;2024-01-15T10:12:47;5.40;99.90
18694;DHT22;9477;51.414;10.362;2024-01-15T10:14:50;5.40;99.90
18694;DHT22;9477;51.414;10.362;2024-01-15T10:16:53;5.40;99.90
18694;DHT22;9477;51.414;10.362;2024-01-15T10:18:57;5.40;99.90
18694;DHT22;9477;51.414;10.362;2024-01-15T10:21:02;5.40;99.90
18694;DHT22;9477;51.414;10.362;2024-01-15T10:23:05;5.50;99.90
18694;DHT22;9477;51.414;10.362;2024-01-15T10:25:10;5.60;99.90
18694;DHT22;9477;51.414;10.362;2024-01-15T10:27:13;5.60;99.90
18694;DHT22;9477;51.414;10.362;2024-01-15T10:29:16;5.50;99.90
18694;DHT22;9477;51.414;10.362;2024-01-15T10:31:19;5.50;99.90
18694;DHT22;9477;51.414;10.362;2024-01-15T10:33:22;5.40;99.90
18694;DHT22;9477;51.414;10.362;2024-01-15T10:35:28;5.30;99.90
18694;DHT22;9477;51.414;10.362;2024-01-15T10:37:34;5.40;99.90
18694;DHT22;9477;51.414;10.362;2024-01-15T10:39:37;5.40;99.90
18694;DHT22;9477;51.414;10.362;2024-01-15T10:41:40;5.40;99.90
18694;DHT22;9477;51.414;10.362;2024-01-15T10:43:43;5.30;99.90
18694;DHT22;9477;51.414;10.362;2024-01-15T10:45:47;5.20;99.90
18694;DHT22;9477;51.414;10.362;2024-01-15T10:47:50;5.10;99.90
18694;DHT22;9477;51.414;10.362;2024-01-15T10:49:53;5.10;99.90
18694;DHT22;9477;51.414;10.362;2024-01-15T10:51:56;5.10;99.90
18694;DHT22;9477;51.414;10.362;2024-01-15T10:54:01;5.10;99.90
18694;DHT22;9477;51.414;10.362;2024-01-15T10:56:05;5.30;99.90
18694;DHT22;9477;51.414;10.362;2024-01-15T10:58:08;5.40;99.90
18694;DHT22;9477;51.414;10.362;2024-01-15T11:00:11;5.50;99.90
18694;DHT22;9477;51.414;10.362;2024-01-15T11:02:17;5.60;99.90
18694;DHT22;9477;51.414;10.362;2024-01-15T11:04:20;5.70;99.90
18694;DHT22;9477;51.414;10.362;2024-01-15T11:06:24;5.70;99.90
18694;DHT22;9477;51.414;10.362;2024-01-15T11:08:27;5.80;99.90
18694;DHT22;9477;51.414;10.362;2024-01-15T11:10:41;5.90;99.90
18694;DHT22;9477;51.414;10.362;2024-01-15T11:12:47;5.90;99.90
18694;DHT22;9477;51.414;10.362;2024-01-15T11:14:50;5.90;99.90
18694;DHT22;9477;51.414;10.362;2024-01-15T11:16:57;6.00;99.90
18694;DHT22;9477;51.414;10.362;2024-01-15T11:19:05;5.90;99.90
18694;DHT22;9477;51.414;10.362;2024-01-15T11:21:23;5.90;99.90
18694;DHT22;9477;51.414;10.362;2024-01-15T11:23:42;6.00;99.90
18694;DHT22;9477;51.414;10.362;2024-01-15T11:25:46;6.10;99.90
18694;DHT22;9477;51.414;10.362;2024-01-15T11:27:51;6.20;99.90
18694;DHT22;9477;51.414;10.362;2024-01-15T11:30:03;6.30;99.90
18694;DHT22;9477;51.414;10.362;2024-01-15T11:32:07;6.20;99.90
18694;DHT22;9477;51.414;10.362;2024-01-15T11:34:11;6.20;99.90
18694;DHT22;9477;51.414;10.362;2024-01-15T11:36:13;6.20;99.90
18694;DHT22;9477;51.414;10.362;2024-01-15T11:38:27;6.20;99.90
18694;DHT22;9477;51.414;10.362;2024-01-15T11:40:40;6.30;99.90
18694;DHT22;9477;51.414;10.362;2024-01-15T11:42:46;6.40;99.90
18694;DHT22;9477;51.414;10.362;2024-01-15T11:44:49;6.40;99.90
18694;DHT22;9477;51.414;10.362;2024-01-15T11:46:57;6.30;99.90
18694;DHT22;9477;51.414;10.362;2024-01-15T11:49:03;6.20;99.90
18694;DHT22;9477;51.414;10.362;2024-01-15T11:51:08;6.30;99.90
18694;DHT22;9477;51.414;10.362;2024-01-15T11:53:27;6.10;99.90
18694;DHT22;9477;51.414;10.362;2024-01-15T11:55:34;6.20;99.90
18694;DHT22;9477;51.414;10.362;2024-01-15T11:57:41;6.10;99.90
18694;DHT22;9477;51.414;10.362;2024-01-15T11:59:46;6.20;99.90
18694;DHT22;9477;51.414;10.362;2024-01-15T12:01:50;6.20;99.90
18694;DHT22;9477;51.414;10.362;2024-01-15T12:03:53;6.20;99.90
18694;DHT22;9477;51.414;10.362;2024-01-15T12:05:57;6.20;99.90
18694;DHT22;9477;51.414;10.362;2024-01-15T12:08:00;6.10;99.90
18694;DHT22;9477;51.414;10.362;2024-01-15T12:10:03;6.10;99.90
18694;DHT22;9477;51.414;10.362;2024-01-15T12:12:16;6.10;99.90
18694;DHT22;9477;51.414;10.362;2024-01-15T12:14:21;6.20;99.90
18694;DHT22;9477;51.414;10.362;2024-01-15T12:16:26;6.00;99.90
18694;DHT22;9477;51.414;10.362;2024-01-15T12:18:29;6.00;99.90
18694;DHT22;9477;51.414;10.362;2024-01-15T12:20:32;5.90;99.90
18694;DHT22;9477;51.414;10.362;2024-01-15T12:22:35;5.90;99.90
18694;DHT22;9477;51.414;10.362;2024-01-15T12:24:57;5.90;99.90
18694;DHT22;9477;51.414;10.362;2024-01-15T12:27:00;6.00;99.90
18694;DHT22;9477;51.414;10.362;2024-01-15T12:29:06;6.10;99.90
18694;DHT22;9477;51.414;10.362;2024-01-15T12:31:09;6.20;99.90
18694;DHT22;9477;51.414;10.362;2024-01-15T12:33:13;6.20;99.90
18694;DHT22;9477;51.414;10.362;2024-01-15T12:35:16;6.20;99.90
18694;DHT22;9477;51.414;10.362;2024-01-15T12:37:19;6.10;99.90
18694;DHT22;9477;51.414;10.362;2024-01-15T12:39:21;6.20;99.90
18694;DHT22;9477;51.414;10.362;2024-01-15T12:41:23;6.10;99.90
18694;DHT22;9477;51.414;10.362;2024-01-15T12:43:26;6.10;99.90
18694;DHT22;9477;51.414;10.362;2024-01-15T12:45:30;6.10;99.90
18694;DHT22;9477;51.414;10.362;2024-01-15T12:47:33;6.10;99.90
18694;DHT22;9477;51.414;10.362;2024-01-15T12:49:38;6.20;99.90
18694;DHT22;9477;51.414;10.362;2024-01-15T12:51:41;6.20;99.90
18694;DHT22;9477;51.414;10.362;2024-01-15T12:53:44;6.30;99.90
18694;DHT22;9477;51.414;10.362;2024-01-15T12:55:47;6.30;99.90
18694;DHT22;9477;51.414;10.362;2024-01-15T12:57:49;6.30;99.90
18694;DHT22;9477;51.414;10.362;2024-01-15T12:59:55;6.30;99.90
18694;DHT22;9477;51.414;10.362;2024-01-15T13:01:58;6.10;99.90
18694;DHT22;9477;51.414;10.362;2024-01-15T13:04:00;6.10;99.90
18694;DHT22;9477;51.414;10.362;2024-01-15T13:06:05;6.10;99.90
18694;DHT22;9477;51.414;10.362;2024-01-15T13:08:08;6.00;99.90
18694;DHT22;9477;51.414;10.362;2024-01-15T13:10:11;6.00;99.90
18694;DHT22;9477;51.414;10.362;2024-01-15T13:12:14;5.80;99.90